Time;durP1;ratioP1;P1;durP2;ratioP2;P2;SDS_P1;SDS_P2;PMS_P1;PMS_P2;Temp;Humidity;BMP_temperature;BMP_pressure;BME280_temperature;BME280_humidity;BME280_pressure;Samples;Min_cycle;Max_cycle;Signal;HPM_P1;HPM_P2
2022/12/16 00:01:52;;;;;;;6.63;2.00;;;13.10;96.70;;;;;;5040812;28;20083;-74
2022/12/16 00:04:21;;;;;;;8.60;2.08;;;13.10;96.70;;;;;;5054071;28;20126;-75
2022/12/16 00:06:50;;;;;;;10.98;2.60;;;13.00;96.70;;;;;;5041267;28;20051;-74
2022/12/16 00:09:19;;;;;;;5.82;1.65;;;13.00;96.70;;;;;;5034108;28;20805;-75
2022/12/16 00:11:48;;;;;;;4.82;1.40;;;13.00;96.70;;;;;;5042695;28;20045;-73
2022/12/16 00:14:16;;;;;;;7.18;1.63;;;13.00;96.70;;;;;;5038063;28;20061;-73
2022/12/16 00:16:45;;;;;;;10.50;2.17;;;13.00;96.70;;;;;;5024540;28;20048;-73
2022/12/16 00:19:15;;;;;;;8.82;1.88;;;13.00;96.70;;;;;;5032274;28;20045;-74
2022/12/16 00:21:43;;;;;;;8.98;1.85;;;13.00;96.70;;;;;;5057301;28;20041;-74
2022/12/16 00:24:11;;;;;;;5.15;1.50;;;13.00;96.70;;;;;;5049107;28;20057;-75
2022/12/16 00:26:40;;;;;;;7.60;1.67;;;13.00;96.70;;;;;;5044471;28;20087;-74
2022/12/16 00:29:09;;;;;;;9.68;1.75;;;13.00;96.70;;;;;;5035474;28;20049;-74
2022/12/16 00:31:38;;;;;;;8.43;1.67;;;13.00;96.70;;;;;;5038516;28;20517;-74
2022/12/16 00:34:07;;;;;;;4.63;1.52;;;13.00;96.70;;;;;;5045471;28;20049;-73
2022/12/16 00:36:36;;;;;;;7.95;2.05;;;13.00;96.70;;;;;;5038820;28;20397;-73
2022/12/16 00:39:04;;;;;;;5.53;1.90;;;13.00;96.70;;;;;;5027029;28;20045;-75
2022/12/16 00:41:33;;;;;;;9.55;1.52;;;13.00;96.70;;;;;;5040747;28;20049;-73
2022/12/16 00:44:01;;;;;;;4.30;1.35;;;13.00;96.70;;;;;;5032859;28;20136;-74
2022/12/16 00:46:30;;;;;;;8.52;2.33;;;13.00;96.70;;;;;;5057795;28;20069;-74
2022/12/16 00:48:58;;;;;;;6.07;2.17;;;13.00;96.70;;;;;;5055252;28;20171;-74
2022/12/16 00:51:26;;;;;;;7.05;1.90;;;13.00;96.70;;;;;;5031778;28;20137;-74
2022/12/16 00:53:56;;;;;;;8.55;5.57;;;12.90;96.70;;;;;;5029596;28;20036;-74
2022/12/16 00:56:25;;;;;;;10.27;7.03;;;12.90;96.70;;;;;;5044154;28;20045;-74
2022/12/16 00:58:53;;;;;;;7.90;2.80;;;12.90;96.70;;;;;;5057567;28;20546;-74
2022/12/16 01:01:21;;;;;;;7.40;1.80;;;12.80;96.70;;;;;;5044667;28;20729;-73
2022/12/16 01:03:50;;;;;;;7.57;2.35;;;12.90;96.70;;;;;;5052283;28;20044;-74
2022/12/16 01:06:18;;;;;;;6.90;2.80;;;12.90;96.70;;;;;;5046196;28;20124;-74
2022/12/16 01:08:47;;;;;;;8.95;3.25;;;12.90;96.70;;;;;;5055849;28;20041;-73
2022/12/16 01:11:19;;;;;;;10.98;3.08;;;12.90;96.70;;;;;;5045799;28;20438;-74
2022/12/16 01:13:50;;;;;;;7.95;3.45;;;12.90;96.70;;;;;;5043727;28;20052;-73
2022/12/16 01:16:19;;;;;;;10.00;3.78;;;12.90;96.70;;;;;;5025950;28;20311;-74
2022/12/16 01:18:47;;;;;;;7.65;3.88;;;12.80;96.70;;;;;;5027174;28;20045;-74
2022/12/16 01:21:16;;;;;;;10.52;3.22;;;12.80;96.70;;;;;;5033463;28;20044;-73
2022/12/16 01:23:46;;;;;;;7.10;3.10;;;12.80;96.70;;;;;;5039699;28;20613;-74
2022/12/16 01:26:17;;;;;;;6.82;2.72;;;12.80;96.70;;;;;;5027695;28;20191;-74
2022/12/16 01:28:47;;;;;;;7.43;2.38;;;12.80;96.70;;;;;;5034539;28;20143;-74
2022/12/16 01:31:17;;;;;;;8.05;2.33;;;12.80;96.70;;;;;;5041091;28;20053;-74
2022/12/16 01:33:45;;;;;;;6.13;2.13;;;12.80;96.70;;;;;;5039775;28;20048;-74
2022/12/16 01:36:13;;;;;;;4.63;2.30;;;12.80;96.70;;;;;;5060720;28;20135;-73
2022/12/16 01:38:43;;;;;;;5.50;1.83;;;12.70;96.70;;;;;;5036879;28;20101;-73
2022/12/16 01:41:12;;;;;;;5.38;1.98;;;12.70;96.70;;;;;;5059729;28;20582;-74
2022/12/16 01:43:42;;;;;;;4.47;1.50;;;12.70;96.70;;;;;;5048979;28;20040;-73
2022/12/16 01:46:18;;;;;;;7.22;1.85;;;12.70;96.70;;;;;;5026125;28;20466;-73
2022/12/16 01:48:50;;;;;;;6.25;2.05;;;12.70;96.70;;;;;;5025516;28;20037;-74
2022/12/16 01:51:23;;;;;;;8.18;2.45;;;12.70;96.70;;;;;;5039952;28;20045;-74
2022/12/16 01:53:56;;;;;;;6.15;2.00;;;12.70;96.70;;;;;;5041192;28;20053;-73
2022/12/16 01:56:47;;;;;;;5.25;1.90;;;12.60;96.70;;;;;;5057243;28;20041;-73
2022/12/16 01:59:19;;;;;;;7.28;1.73;;;12.60;96.70;;;;;;5059458;28;20122;-73
2022/12/16 02:01:46;;;;;;;6.20;1.85;;;12.60;96.70;;;;;;5051897;28;20106;-73
2022/12/16 02:04:14;;;;;;;7.60;1.70;;;12.60;96.70;;;;;;5046435;28;20045;-74
2022/12/16 02:06:42;;;;;;;6.10;1.98;;;12.60;96.70;;;;;;5040004;28;20048;-74
2022/12/16 02:09:11;;;;;;;9.15;1.83;;;12.60;96.70;;;;;;5042632;28;20037;-75
2022/12/16 02:12:03;;;;;;;10.30;2.38;;;12.60;96.70;;;;;;5041804;28;20151;-74
2022/12/16 02:15:19;;;;;;;5.95;2.10;;;12.60;96.70;;;;;;5058472;28;20057;-74
2022/12/16 02:17:53;;;;;;;6.32;1.95;;;12.60;96.70;;;;;;5023460;28;20079;-74
2022/12/16 02:20:52;;;;;;;6.90;2.30;;;12.50;96.70;;;;;;5028811;28;20118;-73
2022/12/16 02:24:00;;;;;;;5.60;1.73;;;12.40;96.70;;;;;;5040465;28;20061;-73
2022/12/16 02:27:07;;;;;;;5.60;1.60;;;12.40;96.70;;;;;;5037377;28;20086;-73
2022/12/16 02:30:07;;;;;;;3.83;1.30;;;12.40;96.70;;;;;;5030751;28;20398;-74
2022/12/16 02:32:50;;;;;;;4.30;1.58;;;12.40;96.70;;;;;;5044437;28;20065;-76
2022/12/16 02:35:26;;;;;;;4.82;1.48;;;12.40;96.70;;;;;;5043016;28;20060;-76
2022/12/16 02:38:07;;;;;;;4.47;1.98;;;12.40;96.70;;;;;;5030934;28;20099;-76
2022/12/16 02:40:40;;;;;;;6.32;1.58;;;12.40;96.70;;;;;;5034450;28;20041;-76
2022/12/16 02:43:14;;;;;;;4.07;1.27;;;12.30;96.70;;;;;;5057099;28;20150;-76
2022/12/16 02:45:43;;;;;;;5.13;1.77;;;12.30;96.70;;;;;;5044305;28;20049;-76
2022/12/16 02:48:17;;;;;;;4.40;1.52;;;12.30;96.70;;;;;;5025168;28;20041;-76
2022/12/16 02:50:48;;;;;;;4.70;1.35;;;12.30;96.70;;;;;;5025283;28;20128;-76
2022/12/16 02:53:17;;;;;;;5.63;1.50;;;12.30;96.70;;;;;;5039458;28;20045;-76
2022/12/16 02:55:59;;;;;;;4.05;1.17;;;12.30;96.70;;;;;;5043959;28;20139;-76
2022/12/16 02:58:31;;;;;;;4.75;1.50;;;12.30;96.70;;;;;;5048951;28;20053;-76
2022/12/16 03:01:12;;;;;;;4.45;1.10;;;12.30;96.70;;;;;;5037493;28;20063;-75
2022/12/16 03:04:05;;;;;;;2.72;1.00;;;12.30;96.70;;;;;;5042083;28;20045;-77
2022/12/16 03:06:38;;;;;;;5.65;1.60;;;12.30;96.70;;;;;;5037060;28;20076;-75
2022/12/16 03:09:14;;;;;;;5.32;1.30;;;12.30;96.70;;;;;;5039878;28;20042;-76
2022/12/16 03:11:45;;;;;;;6.47;1.30;;;12.30;96.70;;;;;;5043833;28;20041;-76
2022/12/16 03:14:16;;;;;;;3.58;1.08;;;12.30;96.70;;;;;;5042040;28;20549;-77
2022/12/16 03:16:45;;;;;;;3.80;1.10;;;12.30;96.70;;;;;;5037026;28;20060;-75
2022/12/16 03:19:15;;;;;;;10.60;1.10;;;12.20;96.70;;;;;;5045131;28;20053;-77
2022/12/16 03:21:53;;;;;;;3.13;0.90;;;12.20;96.70;;;;;;5042844;28;20592;-76
2022/12/16 03:24:22;;;;;;;4.57;0.73;;;12.20;96.70;;;;;;5050212;28;20449;-77
2022/12/16 03:26:55;;;;;;;4.15;0.95;;;12.20;96.70;;;;;;5025254;28;20699;-76
2022/12/16 03:29:33;;;;;;;2.90;1.05;;;12.20;96.70;;;;;;5038669;28;20071;-76
2022/12/16 03:32:06;;;;;;;4.50;1.17;;;12.20;96.70;;;;;;5058408;28;20052;-76
2022/12/16 03:34:41;;;;;;;4.07;1.50;;;12.20;96.70;;;;;;5040920;28;20159;-77
2022/12/16 03:37:32;;;;;;;6.97;1.38;;;12.20;96.70;;;;;;5043176;28;20044;-76
2022/12/16 03:40:04;;;;;;;4.53;1.27;;;12.20;96.70;;;;;;5057571;28;20136;-76
2022/12/16 03:42:33;;;;;;;6.25;1.23;;;12.20;96.70;;;;;;5048481;28;20053;-76
2022/12/16 03:45:02;;;;;;;3.60;1.10;;;12.20;96.70;;;;;;5048622;28;20055;-76
2022/12/16 03:47:30;;;;;;;5.13;1.38;;;12.20;96.70;;;;;;5058098;28;20048;-76
2022/12/16 03:49:59;;;;;;;2.15;1.00;;;12.20;96.70;;;;;;5026178;28;20052;-76
2022/12/16 03:52:27;;;;;;;4.97;2.72;;;12.20;96.70;;;;;;5023861;28;20139;-76
2022/12/16 03:55:12;;;;;;;9.68;4.80;;;12.20;96.70;;;;;;5029766;28;20049;-76
2022/12/16 03:57:40;;;;;;;4.85;3.28;;;12.20;96.70;;;;;;5020839;28;20037;-76
2022/12/16 04:00:10;;;;;;;8.52;3.67;;;12.20;96.70;;;;;;5051995;28;20050;-76
2022/12/16 04:02:38;;;;;;;6.03;2.90;;;12.20;96.70;;;;;;5041749;28;20091;-77
2022/12/16 04:05:08;;;;;;;3.65;1.90;;;12.20;96.70;;;;;;5044076;28;20048;-76
2022/12/16 04:07:36;;;;;;;4.50;1.73;;;12.20;96.70;;;;;;5049066;28;20073;-76
2022/12/16 04:24:17;;;;;;;6.55;1.65;;;12.20;96.70;;;;;;5035544;28;20045;-77
2022/12/16 04:24:22;;;;;;;2.85;1.33;;;12.20;96.70;;;;;;5022378;28;20620;-77
2022/12/16 04:27:26;;;;;;;4.07;1.48;;;12.20;96.70;;;;;;5048527;28;20622;-77
